Map

Track Data

SID SEASON NUMBER BASIN SUBBASIN NAME ISO_TIME NATURE LAT LON WMO_WIND WMO_PRES WMO_AGENCY TRACK_TYPE DIST2LAND LANDFALL IFLAG USA_AGENCY USA_ATCF_ID USA_LAT USA_LON USA_RECORD USA_STATUS USA_WIND USA_PRES USA_SSHS USA_R34_NE USA_R34_SE USA_R34_SW USA_R34_NW USA_R50_NE USA_R50_SE USA_R50_SW USA_R50_NW USA_R64_NE USA_R64_SE USA_R64_SW USA_R64_NW USA_POCI USA_ROCI USA_RMW USA_EYE TOKYO_LAT TOKYO_LON TOKYO_GRADE TOKYO_WIND TOKYO_PRES TOKYO_R50_DIR TOKYO_R50_LONG TOKYO_R50_SHORT TOKYO_R30_DIR TOKYO_R30_LONG TOKYO_R30_SHORT TOKYO_LAND CMA_LAT CMA_LON CMA_CAT CMA_WIND CMA_PRES HKO_LAT HKO_LON HKO_CAT HKO_WIND HKO_PRES NEWDELHI_LAT NEWDELHI_LON NEWDELHI_GRADE NEWDELHI_WIND NEWDELHI_PRES NEWDELHI_CI NEWDELHI_DP NEWDELHI_POCI REUNION_LAT REUNION_LON REUNION_TYPE REUNION_WIND REUNION_PRES REUNION_TNUM REUNION_CI REUNION_RMW REUNION_R34_NE REUNION_R34_SE REUNION_R34_SW REUNION_R34_NW REUNION_R50_NE REUNION_R50_SE REUNION_R50_SW REUNION_R50_NW REUNION_R64_NE REUNION_R64_SE REUNION_R64_SW REUNION_R64_NW BOM_LAT BOM_LON BOM_TYPE BOM_WIND BOM_PRES BOM_TNUM BOM_CI BOM_RMW BOM_R34_NE BOM_R34_SE BOM_R34_SW BOM_R34_NW BOM_R50_NE BOM_R50_SE BOM_R50_SW BOM_R50_NW BOM_R64_NE BOM_R64_SE BOM_R64_SW BOM_R64_NW BOM_ROCI BOM_POCI BOM_EYE BOM_POS_METHOD BOM_PRES_METHOD NADI_LAT NADI_LON NADI_CAT NADI_WIND NADI_PRES WELLINGTON_LAT WELLINGTON_LON WELLINGTON_WIND WELLINGTON_PRES DS824_LAT DS824_LON DS824_STAGE DS824_WIND DS824_PRES TD9636_LAT TD9636_LON TD9636_STAGE TD9636_WIND TD9636_PRES TD9635_LAT TD9635_LON TD9635_WIND TD9635_PRES TD9635_ROCI NEUMANN_LAT NEUMANN_LON NEUMANN_CLASS NEUMANN_WIND NEUMANN_PRES MLC_LAT MLC_LON MLC_CLASS MLC_WIND MLC_PRES USA_GUST BOM_GUST BOM_GUST_PER REUNION_GUST REUNION_GUST_PER USA_SEAHGT USA_SEARAD_NE USA_SEARAD_SE USA_SEARAD_SW USA_SEARAD_NW STORM_SPEED STORM_DIR
1906132N10141 1906 15 WP MM NOT_NAMED 1906-05-11 16:00:00 NR 9.50000 141.200 main 1287 1276 __________O___ -1 9.50000 141.200 7 20 285
1906132N10141 1906 15 WP MM NOT_NAMED 1906-05-11 18:00:00 NR 9.67824 140.540 main 1282 1267 __________P___ -1 9.67824 140.540 7 20 285
1906132N10141 1906 15 WP MM NOT_NAMED 1906-05-11 21:00:00 NR 9.93372 139.583 main 1267 1260 __________P___ -1 9.93372 139.583 7 19 285
1906132N10141 1906 15 WP MM NOT_NAMED 1906-05-12 00:00:00 NR 10.1620 138.717 main 1268 1260 __________P___ -1 10.1620 138.717 7 16 285
1906132N10141 1906 15 WP MM NOT_NAMED 1906-05-12 03:00:00 NR 10.3491 137.998 main 1260 1267 __________P___ -1 10.3491 137.998 7 14 285
1906132N10141 1906 15 WP MM NOT_NAMED 1906-05-12 04:00:00 NR 10.4000 137.800 main 1267 1238 __________O___ -1 10.4000 137.800 3 11 285
1906132N10141 1906 15 WP MM NOT_NAMED 1906-05-12 06:00:00 NR 10.4832 137.474 main 1238 1198 __________P___ -1 10.4832 137.474 3 8 284
1906132N10141 1906 15 WP MM NOT_NAMED 1906-05-12 09:00:00 NR 10.5711 137.124 main 1198 1177 __________P___ -1 10.5711 137.124 3 6 284
1906132N10141 1906 15 WP MM NOT_NAMED 1906-05-12 12:00:00 NR 10.6313 136.880 main 1177 1159 __________P___ -1 10.6313 136.880 3 5 284
1906132N10141 1906 15 WP MM NOT_NAMED 1906-05-12 15:00:00 NR 10.6821 136.673 main 1159 1148 __________P___ -1 10.6821 136.673 3 4 284
1906132N10141 1906 15 WP MM NOT_NAMED 1906-05-12 16:00:00 NR 10.7000 136.600 main 1148 1127 __________O___ -1 10.7000 136.600 4 6 284
1906132N10141 1906 15 WP MM NOT_NAMED 1906-05-12 18:00:00 NR 10.7500 136.395 main 1127 1097 __________P___ -1 10.7500 136.395 4 6 284
1906132N10141 1906 15 WP MM NOT_NAMED 1906-05-12 21:00:00 NR 10.8250 136.087 main 1097 1067 __________P___ -1 10.8250 136.087 4 6 284
1906132N10141 1906 15 WP MM NOT_NAMED 1906-05-13 00:00:00 NR 10.9000 135.784 main 1067 1038 __________P___ -1 10.9000 135.784 4 6 284
1906132N10141 1906 15 WP MM NOT_NAMED 1906-05-13 03:00:00 NR 10.9750 135.493 main 1038 1027 __________P___ -1 10.9750 135.493 4 6 285
1906132N10141 1906 15 WP MM NOT_NAMED 1906-05-13 04:00:00 NR 11.0000 135.400 main 1027 1006 __________O___ -1 11.0000 135.400 4 5 286
1906132N10141 1906 15 WP MM NOT_NAMED 1906-05-13 06:00:00 NR 11.0499 135.230 main 1006 987 __________P___ -1 11.0499 135.230 4 5 287
1906132N10141 1906 15 WP MM NOT_NAMED 1906-05-13 09:00:00 NR 11.1247 134.987 main 987 957 __________P___ -1 11.1247 134.987 4 5 288
1906132N10141 1906 15 WP MM NOT_NAMED 1906-05-13 12:00:00 NR 11.1997 134.746 main 957 938 __________P___ -1 11.1997 134.746 4 5 287
1906132N10141 1906 15 WP MM NOT_NAMED 1906-05-13 15:00:00 NR 11.2749 134.491 main 938 928 __________P___ -1 11.2749 134.491 4 5 286
1906132N10141 1906 15 WP MM NOT_NAMED 1906-05-13 16:00:00 NR 11.3000 134.400 main 928 907 __________O___ -1 11.3000 134.400 4 6 285
1906132N10141 1906 15 WP MM NOT_NAMED 1906-05-13 18:00:00 NR 11.3526 134.200 main 909 878 __________P___ -1 11.3526 134.200 4 6 285
1906132N10141 1906 15 WP MM NOT_NAMED 1906-05-13 21:00:00 NR 11.4316 133.882 main 878 839 __________P___ -1 11.4316 133.882 4 7 284
1906132N10141 1906 15 WP MM NOT_NAMED 1906-05-14 00:00:00 NR 11.5079 133.550 main 839 810 __________P___ -1 11.5079 133.550 4 7 283
1906132N10141 1906 15 WP MM NOT_NAMED 1906-05-14 03:00:00 NR 11.5783 133.212 main 810 799 __________P___ -1 11.5783 133.212 4 7 282
1906132N10141 1906 15 WP MM NOT_NAMED 1906-05-14 04:00:00 NR 11.6000 133.100 main 799 777 __________O___ -1 11.6000 133.100 4 7 280
1906132N10141 1906 15 WP MM NOT_NAMED 1906-05-14 06:00:00 NR 11.6337 132.883 main 777 745 __________P___ -1 11.6337 132.883 4 6 278
1906132N10141 1906 15 WP MM NOT_NAMED 1906-05-14 09:00:00 NR 11.6779 132.558 main 745 702 __________P___ -1 11.6779 132.558 4 6 278
1906132N10141 1906 15 WP MM NOT_NAMED 1906-05-14 12:00:00 NR 11.7228 132.233 main 702 671 __________P___ -1 11.7228 132.233 4 6 279
1906132N10141 1906 15 WP MM NOT_NAMED 1906-05-14 15:00:00 NR 11.7778 131.908 main 671 660 __________P___ -1 11.7778 131.908 4 6 280
1906132N10141 1906 15 WP MM NOT_NAMED 1906-05-14 16:00:00 NR 11.8000 131.800 main 660 638 __________O___ -1 11.8000 131.800 4 6 284
1906132N10141 1906 15 WP MM NOT_NAMED 1906-05-14 18:00:00 NR 11.8551 131.589 main 640 608 __________P___ -1 11.8551 131.589 4 6 286
1906132N10141 1906 15 WP MM NOT_NAMED 1906-05-14 21:00:00 NR 11.9505 131.272 main 610 569 __________P___ -1 11.9505 131.272 4 7 288
1906132N10141 1906 15 WP MM NOT_NAMED 1906-05-15 00:00:00 NR 12.0556 130.949 main 569 540 __________P___ -1 12.0556 130.949 4 7 288
1906132N10141 1906 15 WP MM NOT_NAMED 1906-05-15 03:00:00 NR 12.1641 130.615 main 540 529 __________P___ -1 12.1641 130.615 4 7 288
1906132N10141 1906 15 WP MM NOT_NAMED 1906-05-15 04:00:00 NR 12.2000 130.500 main 529 508 __________O___ -1 12.2000 130.500 4 7 286
1906132N10141 1906 15 WP MM NOT_NAMED 1906-05-15 06:00:00 NR 12.2640 130.264 main 511 469 __________P___ -1 12.2640 130.264 4 7 285
1906132N10141 1906 15 WP MM NOT_NAMED 1906-05-15 09:00:00 NR 12.3599 129.897 main 473 436 __________P___ -1 12.3599 129.897 4 8 285
1906132N10141 1906 15 WP MM NOT_NAMED 1906-05-15 12:00:00 NR 12.4586 129.519 main 436 393 __________P___ -1 12.4586 129.519 4 8 285
1906132N10141 1906 15 WP MM NOT_NAMED 1906-05-15 15:00:00 NR 12.5633 129.131 main 393 382 __________P___ -1 12.5633 129.131 4 8 286
1906132N10141 1906 15 WP MM NOT_NAMED 1906-05-15 16:00:00 NR 12.6000 129.000 main 382 352 __________O___ -1 12.6000 129.000 4 8 286
1906132N10141 1906 15 WP MM NOT_NAMED 1906-05-15 18:00:00 NR 12.6749 128.739 main 352 311 __________P___ -1 12.6749 128.739 4 8 287
1906132N10141 1906 15 WP MM NOT_NAMED 1906-05-15 21:00:00 NR 12.7936 128.341 main 311 272 __________P___ -1 12.7936 128.341 4 8 287
1906132N10141 1906 15 WP MM NOT_NAMED 1906-05-16 00:00:00 NR 12.9198 127.939 main 272 239 __________P___ -1 12.9198 127.939 4 8 288
1906132N10141 1906 15 WP MM NOT_NAMED 1906-05-16 03:00:00 NR 13.0537 127.535 main 239 229 __________P___ -1 13.0537 127.535 4 8 289
1906132N10141 1906 15 WP MM NOT_NAMED 1906-05-16 04:00:00 NR 13.1000 127.400 main 229 206 __________O___ -1 13.1000 127.400 4 8 289
1906132N10141 1906 15 WP MM NOT_NAMED 1906-05-16 06:00:00 NR 13.1916 127.125 main 206 179 __________P___ -1 13.1916 127.125 4 9 289
1906132N10141 1906 15 WP MM NOT_NAMED 1906-05-16 09:00:00 NR 13.3354 126.713 main 179 163 __________P___ -1 13.3354 126.713 4 8 290
1906132N10141 1906 15 WP MM NOT_NAMED 1906-05-16 12:00:00 NR 13.4866 126.310 main 163 144 __________P___ -1 13.4866 126.310 4 8 292
1906132N10141 1906 15 WP MM NOT_NAMED 1906-05-16 15:00:00 NR 13.6454 125.923 main 144 149 __________P___ -1 13.6454 125.923 4 8 293
1906132N10141 1906 15 WP MM NOT_NAMED 1906-05-16 16:00:00 NR 13.7000 125.800 main 149 129 __________O___ -1 13.7000 125.800 4 8 295
1906132N10141 1906 15 WP MM NOT_NAMED 1906-05-16 18:00:00 NR 13.8108 125.556 main 129 87 __________P___ -1 13.8108 125.556 4 8 296
1906132N10141 1906 15 WP MM NOT_NAMED 1906-05-16 21:00:00 NR 13.9835 125.208 main 87 58 __________P___ -1 13.9835 125.208 4 7 298
1906132N10141 1906 15 WP MM NOT_NAMED 1906-05-17 00:00:00 NR 14.1611 124.885 main 63 46 __________P___ -1 14.1611 124.885 4 7 301
1906132N10141 1906 15 WP MM NOT_NAMED 1906-05-17 03:00:00 NR 14.3404 124.591 main 46 49 __________P___ -1 14.3404 124.591 4 7 303
1906132N10141 1906 15 WP MM NOT_NAMED 1906-05-17 04:00:00 NR 14.4000 124.500 main 49 46 __________O___ -1 14.4000 124.500 4 5 310
1906132N10141 1906 15 WP MM NOT_NAMED 1906-05-17 06:00:00 NR 14.5160 124.377 main 57 55 __________P___ -1 14.5160 124.377 4 5 317
1906132N10141 1906 15 WP MM NOT_NAMED 1906-05-17 09:00:00 NR 14.6901 124.218 main 78 78 __________P___ -1 14.6901 124.218 4 5 316
1906132N10141 1906 15 WP MM NOT_NAMED 1906-05-17 12:00:00 NR 14.8650 124.027 main 101 101 __________P___ -1 14.8650 124.027 4 6 307
1906132N10141 1906 15 WP MM NOT_NAMED 1906-05-17 15:00:00 NR 15.0411 123.733 main 119 125 __________P___ -1 15.0411 123.733 4 7 300
1906132N10141 1906 15 WP MM NOT_NAMED 1906-05-17 16:00:00 NR 15.1000 123.600 main 125 116 __________O___ -1 15.1000 123.600 4 11 289
1906132N10141 1906 15 WP MM NOT_NAMED 1906-05-17 18:00:00 NR 15.2180 123.203 main 116 85 __________P___ -1 15.2180 123.203 4 13 285
1906132N10141 1906 15 WP MM NOT_NAMED 1906-05-17 21:00:00 NR 15.3945 122.486 main 85 15 __________P___ -1 15.3945 122.486 4 15 284
1906132N10141 1906 15 WP MM NOT_NAMED 1906-05-18 00:00:00 NR 15.5692 121.719 main 15 0 __________P___ -1 15.5692 121.719 4 15 284
1906132N10141 1906 15 WP MM NOT_NAMED 1906-05-18 03:00:00 NR 15.7424 121.007 main 0 0 __________P___ -1 15.7424 121.007 4 14 285
1906132N10141 1906 15 WP MM NOT_NAMED 1906-05-18 04:00:00 NR 15.8000 120.800 main 0 0 __________O___ -1 15.8000 120.800 4 11 289
1906132N10141 1906 15 WP MM NOT_NAMED 1906-05-18 06:00:00 NR 15.9157 120.489 main 0 0 __________P___ -1 15.9157 120.489 4 9 294
1906132N10141 1906 15 WP MM NOT_NAMED 1906-05-18 09:00:00 NR 16.0902 120.118 main 0 0 __________P___ -1 16.0902 120.118 4 7 299
1906132N10141 1906 15 WP MM NOT_NAMED 1906-05-18 12:00:00 NR 16.2655 119.828 main 0 0 __________P___ -1 16.2655 119.828 4 6 304
1906132N10141 1906 15 WP MM NOT_NAMED 1906-05-18 15:00:00 NR 16.4414 119.580 main 24 30 __________P___ -1 16.4414 119.580 4 6 307
1906132N10141 1906 15 WP MM NOT_NAMED 1906-05-18 16:00:00 NR 16.5000 119.500 main 39 39 __________O___ -1 16.5000 119.500 4 6 304
1906132N10141 1906 15 WP MM NOT_NAMED 1906-05-18 18:00:00 NR 16.6113 119.313 main 63 63 __________P___ -1 16.6113 119.313 4 6 303
1906132N10141 1906 15 WP MM NOT_NAMED 1906-05-18 21:00:00 NR 16.7782 119.052 main 93 102 __________P___ -1 16.7782 119.052 4 6 305
1906132N10141 1906 15 WP MM NOT_NAMED 1906-05-19 00:00:00 NR 16.9507 118.809 main 132 132 __________P___ -1 16.9507 118.809 4 6 308
1906132N10141 1906 15 WP MM NOT_NAMED 1906-05-19 03:00:00 NR 17.1349 118.576 main 156 156 __________P___ -1 17.1349 118.576 4 6 310
1906132N10141 1906 15 WP MM NOT_NAMED 1906-05-19 04:00:00 NR 17.2000 118.500 main 171 171 __________O___ -1 17.2000 118.500 4 6 312
1906132N10141 1906 15 WP MM NOT_NAMED 1906-05-19 06:00:00 NR 17.3333 118.342 main 195 195 __________P___ -1 17.3333 118.342 4 6 313
1906132N10141 1906 15 WP MM NOT_NAMED 1906-05-19 09:00:00 NR 17.5457 118.110 main 225 232 __________P___ -1 17.5457 118.110 4 6 315
1906132N10141 1906 15 WP MM NOT_NAMED 1906-05-19 12:00:00 NR 17.7733 117.886 main 255 255 __________P___ -1 17.7733 117.886 4 6 318
1906132N10141 1906 15 WP MM NOT_NAMED 1906-05-19 15:00:00 NR 18.0158 117.670 main 278 278 __________P___ -1 18.0158 117.670 4 6 320
1906132N10141 1906 15 WP MM NOT_NAMED 1906-05-19 16:00:00 NR 18.1000 117.600 main 291 291 __________O___ -1 18.1000 117.600 4 7 321
1906132N10141 1906 15 WP MM NOT_NAMED 1906-05-19 18:00:00 NR 18.2692 117.458 main 306 316 __________P___ -1 18.2692 117.458 4 7 323
1906132N10141 1906 15 WP MM NOT_NAMED 1906-05-19 21:00:00 NR 18.5357 117.252 main 332 346 __________P___ -1 18.5357 117.252 4 7 325
1906132N10141 1906 15 WP MM NOT_NAMED 1906-05-20 00:00:00 NR 18.8145 117.053 main 363 373 __________P___ -1 18.8145 117.053 4 7 327
1906132N10141 1906 15 WP MM NOT_NAMED 1906-05-20 03:00:00 NR 19.1025 116.862 main 395 395 __________P___ -1 19.1025 116.862 4 7 328
1906132N10141 1906 15 WP MM NOT_NAMED 1906-05-20 04:00:00 NR 19.2000 116.800 main 404 380 __________O___ -1 19.2000 116.800 4 7 328
1906132N10141 1906 15 WP MM NOT_NAMED 1906-05-20 06:00:00 NR 19.3943 116.665 main 380 343 __________P___ -1 19.3943 116.665 4 7 327
1906132N10141 1906 15 WP MM NOT_NAMED 1906-05-20 09:00:00 NR 19.6921 116.467 main 343 306 __________P___ -1 19.6921 116.467 4 7 330
1906132N10141 1906 15 WP MM NOT_NAMED 1906-05-20 12:00:00 NR 19.9946 116.289 main 306 270 __________P___ -1 19.9946 116.289 4 7 333
1906132N10141 1906 15 WP MM NOT_NAMED 1906-05-20 15:00:00 NR 20.2988 116.140 main 270 259 __________P___ -1 20.2988 116.140 4 7 336
1906132N10141 1906 15 WP MM NOT_NAMED 1906-05-20 16:00:00 NR 20.4000 116.100 main 259 235 __________O___ -1 20.4000 116.100 4 6 338
1906132N10141 1906 15 WP MM NOT_NAMED 1906-05-20 18:00:00 NR 20.5947 116.017 main 235 201 __________P___ -1 20.5947 116.017 4 6 342
1906132N10141 1906 15 WP MM NOT_NAMED 1906-05-20 21:00:00 NR 20.8866 115.924 main 201 168 __________P___ -1 20.8866 115.924 4 6 347
1906132N10141 1906 15 WP MM NOT_NAMED 1906-05-21 00:00:00 NR 21.1840 115.877 main 168 134 __________P___ -1 21.1840 115.877 4 6 356
1906132N10141 1906 15 WP MM NOT_NAMED 1906-05-21 03:00:00 NR 21.4932 115.884 main 134 123 __________P___ -1 21.4932 115.884 4 6 4
1906132N10141 1906 15 WP MM NOT_NAMED 1906-05-21 04:00:00 NR 21.6000 115.900 main 123 101 __________O___ -1 21.6000 115.900 4 7 9
1906132N10141 1906 15 WP MM NOT_NAMED 1906-05-21 06:00:00 NR 21.8298 115.946 main 101 63 __________P___ -1 21.8298 115.946 4 7 14
1906132N10141 1906 15 WP MM NOT_NAMED 1906-05-21 09:00:00 NR 22.1872 116.066 main 63 35 __________P___ -1 22.1872 116.066 4 8 20
1906132N10141 1906 15 WP MM NOT_NAMED 1906-05-21 12:00:00 NR 22.5461 116.233 main 35 10 __________P___ -1 22.5461 116.233 4 8 25
1906132N10141 1906 15 WP MM NOT_NAMED 1906-05-21 15:00:00 NR 22.8909 116.430 main 10 0 __________P___ -1 22.8909 116.430 4 8 29
1906132N10141 1906 15 WP MM NOT_NAMED 1906-05-21 16:00:00 NR 23.0000 116.500 main 0 0 __________O___ -1 23.0000 116.500 4 7 25
1906132N10141 1906 15 WP MM NOT_NAMED 1906-05-21 18:00:00 NR 23.1891 116.579 main 0 0 __________P___ -1 23.1891 116.579 4 6 23
1906132N10141 1906 15 WP MM NOT_NAMED 1906-05-21 21:00:00 NR 23.4536 116.715 main 0 0 __________P___ -1 23.4536 116.715 4 6 31
1906132N10141 1906 15 WP MM NOT_NAMED 1906-05-22 00:00:00 NR 23.7156 116.921 main 0 0 __________P___ -1 23.7156 116.921 4 7 42
1906132N10141 1906 15 WP MM NOT_NAMED 1906-05-22 03:00:00 NR 23.9977 117.252 main 0 0 __________P___ -1 23.9977 117.252 4 9 49
1906132N10141 1906 15 WP MM NOT_NAMED 1906-05-22 04:00:00 NR 24.1000 117.400 main 0 0 __________O___ -1 24.1000 117.400 4 12 53
1906132N10141 1906 15 WP MM NOT_NAMED 1906-05-22 06:00:00 NR 24.3514 117.768 main 0 0 __________P___ -1 24.3514 117.768 4 14 56
1906132N10141 1906 15 WP MM NOT_NAMED 1906-05-22 09:00:00 NR 24.7538 118.453 main 0 0 __________P___ -1 24.7538 118.453 4 16 59
1906132N10141 1906 15 WP MM NOT_NAMED 1906-05-22 12:00:00 NR 25.1502 119.251 main 0 0 __________P___ -1 25.1502 119.251 4 17 64
1906132N10141 1906 15 WP MM NOT_NAMED 1906-05-22 15:00:00 NR 25.5003 120.110 main 41 51 __________P___ -1 25.5003 120.110 4 17 67
1906132N10141 1906 15 WP MM NOT_NAMED 1906-05-22 16:00:00 NR 25.6000 120.400 main 73 73 __________O___ -1 25.6000 120.400 4 16 71
1906132N10141 1906 15 WP MM NOT_NAMED 1906-05-22 18:00:00 NR 25.7556 120.935 main 83 67 __________P___ -1 25.7556 120.935 4 15 75
1906132N10141 1906 15 WP MM NOT_NAMED 1906-05-22 21:00:00 NR 25.9329 121.761 main 80 80 __________P___ -1 25.9329 121.761 4 15 79
1906132N10141 1906 15 WP MM NOT_NAMED 1906-05-23 00:00:00 NR 26.0627 122.616 main 136 141 __________P___ -1 26.0627 122.616 4 16 81
1906132N10141 1906 15 WP MM NOT_NAMED 1906-05-23 03:00:00 NR 26.1670 123.499 main 201 201 __________P___ -1 26.1670 123.499 4 16 83
1906132N10141 1906 15 WP MM NOT_NAMED 1906-05-23 04:00:00 NR 26.2000 123.800 main 224 224 __________O___ -1 26.2000 123.800 7 17 83
1906132N10141 1906 15 WP MM NOT_NAMED 1906-05-23 06:00:00 NR 26.2723 124.414 main 280 289 __________P___ -1 26.2723 124.414 7 17 83
1906132N10141 1906 15 WP MM NOT_NAMED 1906-05-23 09:00:00 NR 26.3684 125.360 main 374 374 __________P___ -1 26.3684 125.360 7 17 84
1906132N10141 1906 15 WP MM NOT_NAMED 1906-05-23 12:00:00 NR 26.4607 126.321 main 461 471 __________P___ -1 26.4607 126.321 7 17 84
1906132N10141 1906 15 WP MM NOT_NAMED 1906-05-23 15:00:00 NR 26.5620 127.282 main 559 559 __________P___ -1 26.5620 127.282 7 17 83
1906132N10141 1906 15 WP MM NOT_NAMED 1906-05-23 16:00:00 NR 26.6000 127.600 main 572 538 __________O___ -1 26.6000 127.600 7 17 82
1906132N10141 1906 15 WP MM NOT_NAMED 1906-05-23 18:00:00 NR 26.6843 128.229 main 538 490 __________P___ -1 26.6843 128.229 7 17 81
1906132N10141 1906 15 WP MM NOT_NAMED 1906-05-23 21:00:00 NR 26.8277 129.159 main 490 450 __________P___ -1 26.8277 129.159 7 17 80
1906132N10141 1906 15 WP MM NOT_NAMED 1906-05-24 00:00:00 NR 26.9845 130.079 main 450 435 __________P___ -1 26.9845 130.079 7 17 79
1906132N10141 1906 15 WP MM NOT_NAMED 1906-05-24 03:00:00 NR 27.1463 130.995 main 436 425 __________P___ -1 27.1463 130.995 7 17 79
1906132N10141 1906 15 WP MM NOT_NAMED 1906-05-24 04:00:00 NR 27.2000 131.300 main 428 __________O___ -1 27.2000 131.300 7 17 79

Digital Typhoon Data and Search

About IBTrACS Database

This database is a web-friendly format of International Best Track Archive for Climate Stewardship (IBTrACS), a global best track data archive curated by NOAA dating back to 1842.

Updated: 2021-12-08